»·PEaware :: N90559 KSBP-KSBA

N90559 :: KSBP-KSBA

FLIGHT INFORMATION

Flight Status: Arrived
Operator: Privately registered:
United States
More flights under this callsign
Pilot: Aero Safety Training (369)
Aircraft: CESSNA 172 SKYHAWK
(C172)
More flights by this aircraft type
Origin: KSBP San Luis Co Regl
United States
Destination: KSBA Santa Barbara Mun
United States
More flights between these airports :: More routes between these airports
Route: +AVILA V27 GVO
File this flight plan on PilotEdge
Remarks: ILS 7 WITH VECTORS TO KSBA / V /
Altitude:
(Current/Filed)
7,000ft
Speed:
(Current/Filed)
110kts
Departed: 23-May-14 08:48 AM
Arrived: 23-May-14 09:36 AM
Distance/Time
Traveled:
63nm/0:48
Distance/Time
To Go:
Arrived

Flight Plot

Page will automatically refresh every two minutes.


Map Options




Map Legend


Flown Route
Filed Route
Departure Airport
Arrival Airport
Navaid (VOR, NDB)
Fix

Horizontal Profiles

Position Reports

Time Latitude Longitude Heading Altitude Ground
Speed
23-May-14 08:20 35.239287 -120.641396 213 215ft 0kts
23-May-14 08:21 35.239285 -120.641398 213 215ft 0kts
23-May-14 08:22 35.239282 -120.641400 213 215ft 0kts
23-May-14 08:23 35.239279 -120.641402 213 215ft 0kts
23-May-14 08:24 35.239277 -120.641404 213 215ft 0kts
23-May-14 08:25 35.239274 -120.641406 213 215ft 0kts
23-May-14 08:26 35.239271 -120.641409 213 215ft 0kts
23-May-14 08:27 35.239269 -120.641410 213 215ft 0kts
23-May-14 08:28 35.239268 -120.641411 213 215ft 0kts
23-May-14 08:29 35.239266 -120.641412 213 215ft 0kts
23-May-14 08:30 35.239265 -120.641414 213 215ft 0kts
23-May-14 08:31 35.239263 -120.641415 213 215ft 0kts
23-May-14 08:32 35.239262 -120.641416 213 215ft 0kts
23-May-14 08:33 35.239260 -120.641417 213 215ft 0kts
23-May-14 08:34 35.239259 -120.641419 213 215ft 0kts
23-May-14 08:35 35.238938 -120.641411 169 215ft 6kts
23-May-14 08:36 35.237336 -120.639096 123 215ft 3kts
23-May-14 08:37 35.235671 -120.636089 122 215ft 9kts
23-May-14 08:38 35.233992 -120.633008 124 215ft 7kts
23-May-14 08:39 35.233435 -120.632159 248 215ft 0kts
23-May-14 08:40 35.233434 -120.632162 248 215ft 0kts
23-May-14 08:41 35.233432 -120.632170 247 215ft 0kts
23-May-14 08:42 35.233429 -120.632180 247 215ft 0kts
23-May-14 08:43 35.233426 -120.632187 246 215ft 0kts
23-May-14 08:44 35.233324 -120.632539 235 215ft 0kts
23-May-14 08:45 35.234886 -120.636691 305 226ft 66kts
23-May-14 08:46 35.246324 -120.657717 300 1229ft 75kts
23-May-14 08:47 35.258052 -120.680005 300 2239ft 81kts
23-May-14 08:48 35.270725 -120.704439 303 3243ft 81kts
23-May-14 08:49 35.283507 -120.728682 303 4114ft 87kts
23-May-14 08:50 35.296898 -120.754183 298 4978ft 87kts
23-May-14 08:51 35.288782 -120.772452 156 5671ft 92kts
23-May-14 08:52 35.267190 -120.755408 145 6385ft 92kts
23-May-14 08:53 35.244708 -120.738065 148 6958ft 97kts
23-May-14 08:54 35.221373 -120.720439 149 6981ft 97kts
23-May-14 08:55 35.198092 -120.703052 148 6965ft 98kts
23-May-14 08:56 35.173989 -120.685278 148 6960ft 99kts
23-May-14 08:57 35.150622 -120.667820 149 6966ft 103kts
23-May-14 08:58 35.126459 -120.645556 141 7090ft 113kts
23-May-14 08:59 35.101236 -120.620416 139 7061ft 124kts
23-May-14 09:00 35.073846 -120.594433 138 7044ft 124kts
23-May-14 09:01 35.046491 -120.567259 142 6999ft 125kts
23-May-14 09:02 35.018963 -120.541450 142 6999ft 124kts
23-May-14 09:03 34.991333 -120.515704 142 7000ft 124kts
23-May-14 09:04 34.963868 -120.490143 142 7000ft 124kts
23-May-14 09:05 34.936334 -120.464556 143 7022ft 122kts
23-May-14 09:06 34.909514 -120.439018 139 7019ft 124kts
23-May-14 09:07 34.882434 -120.412287 142 6986ft 126kts
23-May-14 09:08 34.854943 -120.386377 142 6987ft 125kts
23-May-14 09:09 34.827579 -120.360534 142 6983ft 125kts
23-May-14 09:10 34.799661 -120.336084 143 7014ft 124kts
23-May-14 09:11 34.771932 -120.311527 142 7049ft 122kts
23-May-14 09:12 34.745163 -120.286060 140 7061ft 123kts
23-May-14 09:13 34.717417 -120.262125 149 7103ft 121kts
23-May-14 09:14 34.694871 -120.242902 141 7094ft 122kts
23-May-14 09:15 34.665083 -120.211734 141 6974ft 121kts
23-May-14 09:16 34.641201 -120.198620 171 6871ft 111kts
23-May-14 09:17 34.609086 -120.194169 173 6258ft 115kts
23-May-14 09:18 34.572494 -120.189155 174 5592ft 103kts
23-May-14 09:19 34.549117 -120.186337 173 5031ft 96kts
23-May-14 09:20 34.522312 -120.182246 171 4353ft 97kts
23-May-14 09:21 34.499802 -120.166606 142 3959ft 94kts
23-May-14 09:22 34.479153 -120.148172 142 3947ft 91kts
23-May-14 09:23 34.459657 -120.129421 140 3685ft 90kts
23-May-14 09:24 34.447320 -120.101244 112 2951ft 99kts
23-May-14 09:25 34.436135 -120.070388 113 2249ft 101kts
23-May-14 09:26 34.426298 -120.039081 98 1976ft 99kts
23-May-14 09:27 34.424285 -120.005854 87 1811ft 100kts
23-May-14 09:28 34.424974 -119.972479 88 1788ft 95kts
23-May-14 09:29 34.425537 -119.943403 89 1493ft 85kts
23-May-14 09:30 34.426252 -119.912133 88 1009ft 97kts
23-May-14 09:31 34.426962 -119.880505 90 526ft 92kts
23-May-14 09:32 34.427547 -119.851496 88 25ft 59kts
23-May-14 09:33 34.427109 -119.846802 175 13ft 0kts
23-May-14 09:34 34.427059 -119.846795 172 13ft 3kts
23-May-14 09:35 34.426711 -119.843114 88 13ft 8kts
23-May-14 09:36 34.426783 -119.839289 84 13ft 7kts

Navigation Log

Ident Type
1. KSBP Airport
2. AVILA Fix
3. NINOO Fix
4. FABEG Fix
5. ORCUT Fix
6. AFOXY Fix
7. GVO Navaid
8. KSBA Airport